Time;durP1;ratioP1;P1;durP2;ratioP2;P2;SDS_P1;SDS_P2;PMS_P1;PMS_P2;Temp;Humidity;BMP_temperature;BMP_pressure;BME280_temperature;BME280_humidity;BME280_pressure;Samples;Min_cycle;Max_cycle;Signal;HPM_P1;HPM_P2
2023/03/09 00:00:32;;;;;;;21.33;7.87;;;8.70;99.90;;;;;;4212716;28;20121;-62
2023/03/09 00:02:33;;;;;;;13.33;6.97;;;8.70;99.90;;;;;;4213449;28;20525;-62
2023/03/09 00:04:34;;;;;;;10.00;5.93;;;8.70;99.90;;;;;;4214437;28;20081;-64
2023/03/09 00:06:35;;;;;;;10.93;5.87;;;8.70;99.90;;;;;;4213094;28;20373;-64
2023/03/09 00:08:36;;;;;;;10.27;5.70;;;8.70;99.90;;;;;;4214112;28;20077;-62
2023/03/09 00:10:40;;;;;;;13.23;6.37;;;8.70;99.90;;;;;;4212790;28;20028;-61
2023/03/09 00:12:42;;;;;;;9.60;4.50;;;8.70;99.90;;;;;;4214139;28;20394;-61
2023/03/09 00:14:43;;;;;;;8.00;3.57;;;8.70;99.90;;;;;;4212820;28;20141;-64
2023/03/09 00:16:45;;;;;;;9.30;3.27;;;8.70;99.90;;;;;;4212960;28;20040;-67
2023/03/09 00:18:46;;;;;;;3.83;2.60;;;8.70;99.90;;;;;;4212982;28;20036;-61
2023/03/09 00:20:47;;;;;;;6.33;3.90;;;8.70;99.90;;;;;;4213206;28;20052;-63
2023/03/09 00:22:50;;;;;;;8.73;4.33;;;8.70;99.90;;;;;;4211668;28;20044;-62
2023/03/09 00:24:55;;;;;;;8.77;4.03;;;8.70;99.90;;;;;;4213566;28;20081;-63
2023/03/09 00:26:59;;;;;;;10.50;4.73;;;8.60;99.90;;;;;;4212830;28;20016;-63
2023/03/09 00:29:00;;;;;;;6.60;4.07;;;8.60;99.90;;;;;;4213661;28;20097;-63
2023/03/09 00:31:06;;;;;;;11.60;4.70;;;8.60;99.90;;;;;;4212692;28;20023;-61
2023/03/09 00:33:07;;;;;;;10.00;5.60;;;8.60;99.90;;;;;;4212603;28;20426;-62
2023/03/09 00:35:09;;;;;;;7.63;4.13;;;8.60;99.90;;;;;;4212431;28;20038;-61
2023/03/09 00:37:10;;;;;;;8.30;3.93;;;8.60;99.90;;;;;;4212903;28;20036;-62
2023/03/09 00:39:14;;;;;;;8.73;4.73;;;8.60;99.90;;;;;;4213422;28;20074;-62
2023/03/09 00:41:15;;;;;;;8.43;4.30;;;8.70;99.90;;;;;;4212390;28;20053;-62
2023/03/09 00:43:16;;;;;;;14.40;6.20;;;8.70;99.90;;;;;;4213060;28;20153;-61
2023/03/09 00:45:17;;;;;;;17.13;7.60;;;8.70;99.90;;;;;;4212274;28;20089;-63
2023/03/09 00:47:19;;;;;;;10.80;6.10;;;8.70;99.90;;;;;;4213696;28;20073;-64
2023/03/09 00:49:20;;;;;;;12.07;6.90;;;8.70;99.90;;;;;;4211573;28;20028;-61
2023/03/09 00:51:21;;;;;;;19.17;7.80;;;8.70;99.90;;;;;;4212699;28;20039;-66
2023/03/09 00:53:23;;;;;;;19.03;8.67;;;8.60;99.90;;;;;;4193594;28;20041;-64
2023/03/09 00:55:24;;;;;;;14.60;8.20;;;8.60;99.90;;;;;;4212609;28;20043;-62
2023/03/09 00:57:26;;;;;;;18.97;8.90;;;8.50;99.90;;;;;;4212213;28;20028;-62
2023/03/09 00:59:28;;;;;;;14.77;7.80;;;8.60;99.90;;;;;;4213258;28;20484;-63
2023/03/09 01:01:29;;;;;;;11.33;7.13;;;8.50;99.90;;;;;;4212372;28;20036;-61
2023/03/09 01:03:30;;;;;;;16.83;7.77;;;8.50;99.90;;;;;;4212927;28;20027;-64
2023/03/09 01:05:31;;;;;;;14.03;7.77;;;8.50;99.90;;;;;;4212158;28;20078;-63
2023/03/09 01:07:34;;;;;;;15.50;7.70;;;8.50;99.90;;;;;;4212336;28;20089;-63
2023/03/09 01:09:39;;;;;;;12.47;7.23;;;8.50;99.90;;;;;;4211719;28;20032;-57
2023/03/09 01:11:40;;;;;;;14.17;8.57;;;8.50;99.90;;;;;;4211262;28;20600;-63
2023/03/09 01:13:42;;;;;;;15.77;7.27;;;8.50;99.90;;;;;;4213034;28;20430;-61
2023/03/09 01:15:43;;;;;;;11.60;7.20;;;8.60;99.90;;;;;;4211982;28;20430;-62
2023/03/09 01:17:44;;;;;;;15.03;6.00;;;8.50;99.90;;;;;;4212731;28;20085;-62
2023/03/09 01:19:45;;;;;;;13.00;5.27;;;8.50;99.90;;;;;;4211528;28;20048;-65
2023/03/09 01:21:46;;;;;;;7.70;4.53;;;8.60;99.90;;;;;;4212686;28;20035;-61
2023/03/09 01:23:47;;;;;;;10.80;5.40;;;8.60;99.90;;;;;;4211611;28;20048;-61
2023/03/09 01:25:48;;;;;;;10.93;6.63;;;8.60;99.90;;;;;;4213027;28;20032;-62
2023/03/09 01:27:51;;;;;;;15.63;7.80;;;8.70;99.90;;;;;;4193525;28;20036;-66
2023/03/09 01:29:52;;;;;;;20.03;8.23;;;8.60;99.90;;;;;;4212063;28;20021;-62
2023/03/09 01:31:53;;;;;;;17.77;8.40;;;8.50;99.90;;;;;;4194995;28;20033;-60
2023/03/09 01:33:54;;;;;;;15.87;7.93;;;8.50;99.90;;;;;;4196523;28;20032;-65
2023/03/09 01:35:56;;;;;;;12.23;6.50;;;8.50;99.90;;;;;;4211938;28;20027;-64
2023/03/09 01:37:57;;;;;;;13.23;5.83;;;8.50;99.90;;;;;;4210588;28;20073;-64
2023/03/09 01:39:58;;;;;;;11.03;7.03;;;8.50;99.90;;;;;;4211780;28;20032;-61
2023/03/09 01:41:59;;;;;;;14.47;5.47;;;8.60;99.90;;;;;;4211855;28;20137;-63
2023/03/09 01:44:00;;;;;;;12.30;6.47;;;8.60;99.90;;;;;;4211377;28;20028;-62
2023/03/09 01:46:19;;;;;;;7.23;4.93;;;8.70;99.90;;;;;;4211615;28;20036;-62
2023/03/09 01:48:21;;;;;;;7.00;3.90;;;8.70;99.90;;;;;;4212259;28;20089;-62
2023/03/09 01:50:27;;;;;;;7.50;4.27;;;8.90;99.90;;;;;;4210811;28;20020;-63
2023/03/09 01:52:31;;;;;;;10.27;4.80;;;8.90;99.90;;;;;;4212395;28;20023;-62
2023/03/09 01:54:50;;;;;;;8.67;4.83;;;8.90;99.90;;;;;;4211062;28;20032;-62
2023/03/09 01:56:55;;;;;;;10.53;5.40;;;8.90;99.90;;;;;;4212562;28;20020;-60
2023/03/09 01:58:57;;;;;;;7.77;5.10;;;8.80;99.90;;;;;;4211158;28;20556;-62
2023/03/09 02:00:58;;;;;;;9.50;5.17;;;8.80;99.90;;;;;;4211388;28;20089;-66
2023/03/09 02:03:07;;;;;;;7.33;4.53;;;8.80;99.90;;;;;;4211210;28;20077;-62
2023/03/09 02:05:12;;;;;;;10.00;4.97;;;8.80;99.90;;;;;;4211760;28;20381;-62
2023/03/09 02:07:18;;;;;;;8.20;5.00;;;8.80;99.90;;;;;;4210298;28;21499;-63
2023/03/09 02:09:31;;;;;;;8.10;4.00;;;8.80;99.90;;;;;;4211644;28;20369;-61
2023/03/09 02:11:33;;;;;;;11.37;3.40;;;8.80;99.90;;;;;;4210765;28;20081;-63
2023/03/09 02:13:45;;;;;;;12.90;3.80;;;8.90;99.90;;;;;;4211407;28;20032;-62
2023/03/09 02:15:46;;;;;;;7.37;3.53;;;8.90;99.90;;;;;;4210654;28;20036;-65
2023/03/09 02:17:48;;;;;;;8.73;4.43;;;8.90;99.90;;;;;;4211843;28;20484;-62
2023/03/09 02:20:01;;;;;;;13.23;6.37;;;9.00;99.90;;;;;;4211107;28;20020;-62
2023/03/09 02:22:02;;;;;;;12.37;5.50;;;8.90;99.90;;;;;;4212255;28;20081;-66
2023/03/09 02:24:42;;;;;;;8.43;4.83;;;8.80;99.90;;;;;;4210236;28;20044;-62
2023/03/09 02:26:46;;;;;;;19.43;5.67;;;8.80;99.90;;;;;;4166612;28;20039;-62
2023/03/09 02:28:48;;;;;;;9.30;4.43;;;8.80;99.90;;;;;;4210861;28;20314;-66
2023/03/09 02:30:50;;;;;;;10.07;5.03;;;8.80;99.90;;;;;;4211677;28;20024;-61
2023/03/09 02:33:06;;;;;;;9.07;4.03;;;8.80;99.90;;;;;;4210866;28;20569;-61
2023/03/09 02:35:09;;;;;;;6.07;3.40;;;8.80;99.90;;;;;;4212259;28;20077;-64
2023/03/09 02:37:31;;;;;;;13.90;4.10;;;8.90;99.90;;;;;;4193570;28;20063;-63
2023/03/09 02:39:49;;;;;;;15.13;4.90;;;8.90;99.90;;;;;;4204073;28;20186;-62
2023/03/09 02:41:53;;;;;;;14.00;6.00;;;8.90;99.90;;;;;;4210057;28;20102;-64
2023/03/09 02:43:57;;;;;;;14.80;7.20;;;8.90;99.90;;;;;;4211516;28;20054;-62
2023/03/09 02:45:58;;;;;;;19.07;8.53;;;8.90;99.90;;;;;;4210447;28;20069;-62
2023/03/09 02:48:00;;;;;;;18.00;9.80;;;8.90;99.90;;;;;;4211550;28;20085;-62
2023/03/09 02:50:01;;;;;;;15.10;8.90;;;8.70;99.90;;;;;;4210567;28;20077;-63
2023/03/09 02:52:02;;;;;;;17.63;9.30;;;8.60;99.90;;;;;;4210760;28;20036;-63
2023/03/09 02:54:03;;;;;;;17.10;8.57;;;8.60;99.90;;;;;;4209107;28;20036;-62
2023/03/09 02:56:05;;;;;;;14.57;7.90;;;8.60;99.90;;;;;;4211596;28;20044;-64
2023/03/09 02:58:06;;;;;;;17.40;8.43;;;8.50;99.90;;;;;;4210223;28;20499;-64
2023/03/09 03:00:10;;;;;;;14.20;6.70;;;8.60;99.90;;;;;;4210889;28;20053;-63
2023/03/09 03:02:11;;;;;;;16.00;7.80;;;8.50;99.90;;;;;;4211104;28;20093;-63
2023/03/09 03:04:12;;;;;;;15.83;9.00;;;8.60;99.90;;;;;;4209818;28;20039;-68
2023/03/09 03:06:13;;;;;;;18.83;9.00;;;8.50;99.90;;;;;;4211929;28;20024;-62
2023/03/09 03:08:15;;;;;;;15.23;7.20;;;8.50;99.90;;;;;;4209667;28;20492;-63
2023/03/09 03:10:16;;;;;;;14.43;4.47;;;8.50;99.90;;;;;;4211353;28;20233;-62
2023/03/09 03:12:18;;;;;;;11.23;4.67;;;8.50;99.90;;;;;;4210025;28;20066;-60
2023/03/09 03:14:19;;;;;;;12.13;3.77;;;8.60;99.90;;;;;;4211362;28;20032;-61
2023/03/09 03:16:20;;;;;;;13.47;5.53;;;8.70;99.90;;;;;;4209909;28;20052;-62
2023/03/09 03:18:22;;;;;;;10.67;6.10;;;8.70;99.90;;;;;;4210828;28;20365;-64
2023/03/09 03:20:23;;;;;;;18.53;7.67;;;8.70;99.90;;;;;;4209940;28;20028;-61
2023/03/09 03:22:24;;;;;;;14.53;7.53;;;8.70;99.90;;;;;;4210887;28;20176;-63
2023/03/09 03:24:26;;;;;;;12.90;7.33;;;8.60;99.90;;;;;;4209966;28;20106;-62
2023/03/09 03:26:28;;;;;;;16.07;7.87;;;8.50;99.90;;;;;;4211268;28;20085;-66
2023/03/09 03:28:29;;;;;;;10.17;5.10;;;8.40;99.90;;;;;;4209822;28;20032;-62
2023/03/09 03:30:30;;;;;;;12.43;5.53;;;8.40;99.90;;;;;;4209994;28;20113;-62
2023/03/09 03:32:31;;;;;;;14.87;6.30;;;8.50;99.90;;;;;;4210755;28;20427;-63
2023/03/09 03:34:32;;;;;;;18.20;7.90;;;8.50;99.90;;;;;;4210762;28;20061;-63
2023/03/09 03:36:33;;;;;;;14.40;7.07;;;8.50;99.90;;;;;;4211329;28;20369;-62
2023/03/09 03:38:34;;;;;;;14.73;6.77;;;8.50;99.90;;;;;;4210050;28;20045;-65
2023/03/09 03:40:36;;;;;;;8.87;4.80;;;8.50;99.90;;;;;;4211106;28;20426;-62
2023/03/09 03:42:37;;;;;;;9.20;4.47;;;8.40;99.90;;;;;;4209532;28;20036;-65
2023/03/09 03:44:38;;;;;;;6.53;4.17;;;8.50;99.90;;;;;;4209700;28;20040;-61
2023/03/09 03:46:39;;;;;;;11.03;4.63;;;8.60;99.90;;;;;;4210190;28;20032;-61
2023/03/09 03:48:42;;;;;;;10.20;5.53;;;8.60;99.90;;;;;;4210864;28;20089;-61
2023/03/09 03:50:43;;;;;;;6.40;3.20;;;8.70;99.90;;;;;;4209910;28;20032;-62
2023/03/09 03:52:44;;;;;;;6.37;3.13;;;8.70;99.90;;;;;;4210402;28;20032;-61
2023/03/09 03:54:46;;;;;;;14.47;5.80;;;8.70;99.90;;;;;;4210008;28;20468;-62
2023/03/09 03:56:47;;;;;;;13.43;6.87;;;8.80;99.90;;;;;;4210964;28;20028;-63
2023/03/09 03:58:48;;;;;;;12.43;6.27;;;8.70;99.90;;;;;;4210191;28;20028;-62
2023/03/09 04:00:49;;;;;;;11.47;6.83;;;8.60;99.90;;;;;;4209941;28;20040;-64
2023/03/09 04:02:50;;;;;;;10.30;4.33;;;8.50;99.90;;;;;;4205286;28;20028;-62
2023/03/09 04:04:52;;;;;;;6.03;3.37;;;8.50;99.90;;;;;;4209270;28;20450;-62
2023/03/09 04:06:53;;;;;;;8.67;4.13;;;8.60;99.90;;;;;;4210588;28;20461;-62
2023/03/09 04:08:54;;;;;;;7.47;3.97;;;8.60;99.90;;;;;;4209072;28;20086;-68
2023/03/09 04:10:55;;;;;;;5.87;3.33;;;8.70;99.90;;;;;;4211072;28;20028;-62
2023/03/09 04:12:57;;;;;;;10.80;5.63;;;8.70;99.90;;;;;;4209951;28;20069;-61
2023/03/09 04:14:58;;;;;;;15.30;5.83;;;8.70;99.90;;;;;;4210107;28;20480;-63
2023/03/09 04:16:59;;;;;;;12.87;5.83;;;8.70;99.90;;;;;;4208862;28;20040;-61
2023/03/09 04:19:00;;;;;;;14.17;7.00;;;8.70;99.90;;;;;;4192377;28;20036;-64
2023/03/09 04:21:01;;;;;;;11.63;5.20;;;8.60;99.90;;;;;;4209452;28;20385;-68
2023/03/09 04:23:03;;;;;;;12.20;6.50;;;8.50;99.90;;;;;;4210765;28;20044;-63
2023/03/09 04:25:04;;;;;;;15.57;5.80;;;8.50;99.90;;;;;;4213029;28;20036;-65
2023/03/09 04:27:05;;;;;;;11.17;6.07;;;8.50;99.90;;;;;;4213872;28;20492;-63
2023/03/09 04:29:06;;;;;;;16.27;7.07;;;8.40;99.90;;;;;;4212544;28;20016;-64
2023/03/09 04:31:07;;;;;;;14.50;7.60;;;8.40;99.90;;;;;;4212683;28;20043;-62
2023/03/09 04:33:09;;;;;;;11.60;6.43;;;8.40;99.90;;;;;;4213028;28;20024;-64
2023/03/09 04:35:11;;;;;;;16.13;6.87;;;8.30;99.90;;;;;;4212764;28;20044;-66
2023/03/09 04:37:12;;;;;;;10.70;5.80;;;8.30;99.90;;;;;;4213164;28;20040;-62
2023/03/09 04:39:13;;;;;;;13.27;6.80;;;8.30;99.90;;;;;;4212517;28;20028;-62
2023/03/09 04:41:15;;;;;;;24.03;11.83;;;8.30;99.90;;;;;;4213367;28;20116;-62
2023/03/09 04:43:16;;;;;;;19.13;8.30;;;8.20;99.90;;;;;;4211655;28;20094;-64
2023/03/09 04:45:17;;;;;;;12.50;7.13;;;8.20;99.90;;;;;;4212693;28;20125;-63
2023/03/09 04:47:18;;;;;;;15.80;6.33;;;8.10;99.90;;;;;;4211397;28;20377;-62
2023/03/09 04:49:19;;;;;;;11.37;6.67;;;8.00;99.90;;;;;;4213600;28;20073;-62
2023/03/09 04:51:21;;;;;;;19.07;7.60;;;8.10;99.90;;;;;;4212204;28;20028;-63
2023/03/09 04:53:22;;;;;;;17.73;7.30;;;8.00;99.90;;;;;;4213110;28;20040;-63
2023/03/09 04:55:23;;;;;;;18.13;7.80;;;8.00;99.90;;;;;;4212272;28;20145;-66
2023/03/09 04:57:24;;;;;;;17.30;7.93;;;8.00;99.90;;;;;;4212334;28;20492;-62
2023/03/09 04:59:25;;;;;;;14.70;6.73;;;7.90;99.90;;;;;;4211831;28;20089;-67
2023/03/09 05:01:26;;;;;;;10.70;5.50;;;8.00;99.90;;;;;;4211641;28;20073;-61
2023/03/09 05:03:28;;;;;;;13.80;6.20;;;8.00;99.90;;;;;;4210908;28;20044;-61
2023/03/09 05:05:29;;;;;;;19.87;7.87;;;8.00;99.90;;;;;;4211634;28;20081;-62
2023/03/09 05:07:31;;;;;;;22.27;8.10;;;8.10;99.90;;;;;;4212301;28;20059;-60
2023/03/09 05:09:32;;;;;;;20.20;7.97;;;8.20;99.90;;;;;;4211387;28;20035;-61
2023/03/09 05:11:33;;;;;;;21.43;8.23;;;8.40;99.90;;;;;;4211649;28;20077;-61
2023/03/09 05:13:34;;;;;;;19.23;8.33;;;8.40;99.90;;;;;;4211478;28;20081;-62
2023/03/09 05:15:38;;;;;;;21.13;8.33;;;8.70;99.90;;;;;;4211777;28;20085;-62
2023/03/09 05:17:39;;;;;;;21.63;8.40;;;9.00;99.90;;;;;;4211678;28;20036;-62
2023/03/09 05:19:41;;;;;;;20.60;8.57;;;9.20;99.90;;;;;;4212612;28;20031;-65
2023/03/09 05:21:42;;;;;;;22.60;7.90;;;9.50;99.90;;;;;;4211174;28;20101;-65
2023/03/09 05:23:43;;;;;;;20.23;7.13;;;9.60;99.90;;;;;;4212267;28;20060;-63
2023/03/09 05:25:58;;;;;;;18.30;6.73;;;9.80;99.90;;;;;;4210653;28;20028;-61
2023/03/09 05:27:59;;;;;;;18.77;7.70;;;9.70;99.90;;;;;;4211950;28;20048;-61
2023/03/09 05:30:00;;;;;;;16.93;7.23;;;9.70;99.90;;;;;;4210816;28;20081;-62
2023/03/09 05:32:01;;;;;;;16.93;7.23;;;9.60;99.90;;;;;;4212244;28;20086;-61
2023/03/09 05:34:02;;;;;;;16.33;8.50;;;9.50;99.90;;;;;;4211331;28;20028;-62
2023/03/09 05:36:15;;;;;;;28.77;10.40;;;9.30;99.90;;;;;;4211640;28;20438;-62
2023/03/09 05:38:17;;;;;;;31.97;9.97;;;9.10;99.90;;;;;;4212418;28;20518;-63
2023/03/09 05:40:21;;;;;;;18.70;9.00;;;9.00;99.90;;;;;;4218459;28;20040;-66
2023/03/09 05:42:22;;;;;;;31.00;9.57;;;9.00;99.90;;;;;;4210951;28;20032;-62
2023/03/09 05:44:23;;;;;;;23.77;9.87;;;8.90;99.90;;;;;;4208947;28;20089;-63
2023/03/09 05:46:24;;;;;;;20.93;9.90;;;8.90;99.90;;;;;;4210516;28;20093;-63
2023/03/09 05:48:25;;;;;;;17.67;9.50;;;8.90;99.90;;;;;;4210056;28;20098;-64
2023/03/09 05:50:26;;;;;;;26.23;11.40;;;8.90;99.90;;;;;;4212121;28;20031;-66
2023/03/09 05:52:27;;;;;;;24.20;10.90;;;8.90;99.90;;;;;;4209981;28;20576;-60
2023/03/09 05:54:28;;;;;;;28.50;10.60;;;8.90;99.90;;;;;;4211694;28;20081;-63
2023/03/09 05:56:30;;;;;;;19.93;10.07;;;8.90;99.90;;;;;;4208387;28;20128;-66
2023/03/09 05:58:31;;;;;;;27.73;9.43;;;8.90;99.90;;;;;;4209053;28;20086;-60
2023/03/09 06:00:32;;;;;;;16.53;9.47;;;8.80;99.90;;;;;;4209926;28;20031;-61
2023/03/09 06:02:33;;;;;;;20.70;9.47;;;8.90;99.90;;;;;;4209871;28;20040;-62
2023/03/09 06:04:34;;;;;;;29.23;11.37;;;8.90;99.90;;;;;;4208264;28;20434;-66
2023/03/09 06:06:36;;;;;;;21.03;8.00;;;8.80;99.90;;;;;;4212350;28;20412;-66
2023/03/09 06:08:37;;;;;;;18.20;8.23;;;8.80;99.90;;;;;;4210394;28;20085;-62
2023/03/09 06:10:38;;;;;;;14.57;7.90;;;8.90;99.90;;;;;;4211967;28;20148;-64
2023/03/09 06:12:39;;;;;;;20.37;8.90;;;9.00;99.90;;;;;;4211573;28;20036;-62
2023/03/09 06:14:40;;;;;;;21.10;9.93;;;9.10;99.90;;;;;;4210547;28;20032;-60
2023/03/09 06:16:42;;;;;;;19.97;8.67;;;9.20;99.90;;;;;;4210466;28;20097;-61
2023/03/09 06:18:43;;;;;;;26.40;13.47;;;9.20;99.90;;;;;;4210037;28;20085;-69
2023/03/09 06:20:45;;;;;;;23.53;8.83;;;9.30;99.90;;;;;;4210706;28;20069;-67
2023/03/09 06:22:46;;;;;;;20.97;9.77;;;9.30;99.90;;;;;;4210022;28;20040;-67
2023/03/09 06:24:47;;;;;;;28.77;9.43;;;9.40;99.90;;;;;;4210656;28;20040;-62
2023/03/09 06:26:48;;;;;;;26.30;9.60;;;9.50;99.90;;;;;;4209397;28;20036;-59
2023/03/09 06:28:49;;;;;;;26.93;10.00;;;9.80;99.90;;;;;;4210986;28;20073;-64
2023/03/09 06:30:51;;;;;;;17.93;9.33;;;9.80;99.90;;;;;;4209686;28;20391;-62
2023/03/09 06:32:53;;;;;;;23.83;9.43;;;9.90;99.90;;;;;;4211665;28;20066;-62
2023/03/09 06:34:54;;;;;;;23.17;9.63;;;10.00;99.90;;;;;;4210248;28;20012;-62
2023/03/09 06:36:55;;;;;;;17.13;9.03;;;10.00;99.90;;;;;;4211493;28;20028;-62
2023/03/09 06:38:56;;;;;;;25.60;10.17;;;10.10;99.90;;;;;;4210341;28;20503;-61
2023/03/09 06:40:57;;;;;;;21.47;9.57;;;10.10;99.90;;;;;;4211219;28;20036;-62
2023/03/09 06:42:58;;;;;;;23.20;9.07;;;10.30;99.90;;;;;;4210007;28;20043;-62
2023/03/09 06:44:59;;;;;;;18.07;9.30;;;10.50;99.90;;;;;;4211021;28;20032;-62
2023/03/09 06:47:00;;;;;;;21.57;9.40;;;10.60;99.90;;;;;;4210579;28;20028;-61
2023/03/09 06:49:02;;;;;;;17.43;8.50;;;10.60;99.90;;;;;;4210553;28;20032;-61
2023/03/09 06:51:03;;;;;;;22.27;8.57;;;10.50;99.90;;;;;;4208004;28;20082;-63
2023/03/09 06:53:04;;;;;;;20.03;7.43;;;10.50;99.90;;;;;;4203213;28;20032;-65
2023/03/09 06:55:06;;;;;;;15.73;6.77;;;10.50;99.90;;;;;;4206201;28;20036;-61
2023/03/09 06:57:08;;;;;;;16.17;6.37;;;10.50;99.90;;;;;;4205252;28;20061;-63
2023/03/09 06:59:09;;;;;;;10.57;5.53;;;10.60;99.90;;;;;;4205049;28;20128;-61
2023/03/09 07:01:13;;;;;;;11.23;5.73;;;10.70;99.90;;;;;;4204868;28;20048;-61
2023/03/09 07:03:17;;;;;;;16.73;6.77;;;10.70;99.90;;;;;;4205558;28;20057;-62
2023/03/09 07:05:19;;;;;;;29.73;12.87;;;10.60;99.90;;;;;;4203861;28;20446;-61
2023/03/09 07:07:20;;;;;;;18.17;8.60;;;10.60;99.90;;;;;;4205644;28;20101;-62
2023/03/09 07:09:21;;;;;;;27.40;10.07;;;10.60;99.90;;;;;;4204612;28;20024;-62
2023/03/09 07:11:23;;;;;;;34.67;10.90;;;10.60;99.90;;;;;;4211256;28;20525;-61
2023/03/09 07:13:24;;;;;;;36.17;9.93;;;10.50;99.90;;;;;;4209569;28;20435;-62
2023/03/09 07:15:25;;;;;;;31.90;12.77;;;10.50;99.90;;;;;;4210880;28;20086;-65
2023/03/09 07:17:26;;;;;;;29.20;10.00;;;10.50;99.90;;;;;;4210166;28;20553;-64
2023/03/09 07:19:27;;;;;;;23.07;9.50;;;10.50;99.90;;;;;;4209458;28;20101;-63
2023/03/09 07:21:29;;;;;;;22.60;9.77;;;10.50;99.90;;;;;;4210433;28;20061;-64
2023/03/09 07:23:31;;;;;;;22.57;9.80;;;10.50;99.90;;;;;;4210163;28;20052;-62
2023/03/09 07:25:35;;;;;;;22.03;9.30;;;10.50;99.90;;;;;;4211050;28;20032;-66
2023/03/09 07:27:36;;;;;;;25.37;7.93;;;10.60;99.90;;;;;;4209289;28;20040;-68
2023/03/09 07:29:40;;;;;;;20.13;7.37;;;10.70;99.90;;;;;;4210912;28;20040;-64
2023/03/09 07:31:41;;;;;;;23.77;8.63;;;10.70;99.90;;;;;;4209523;28;20478;-61
2023/03/09 07:33:42;;;;;;;25.50;10.50;;;10.80;99.90;;;;;;4211241;28;20054;-65
2023/03/09 07:35:43;;;;;;;22.07;8.63;;;10.90;99.90;;;;;;4209631;28;20040;-67
2023/03/09 07:37:44;;;;;;;19.13;9.23;;;10.90;99.90;;;;;;4211559;28;20074;-67
2023/03/09 07:39:45;;;;;;;31.50;12.87;;;10.90;99.90;;;;;;4208935;28;20036;-65
2023/03/09 07:41:46;;;;;;;31.80;11.50;;;11.00;99.90;;;;;;4209843;28;20028;-66
2023/03/09 07:43:47;;;;;;;30.50;11.50;;;11.10;99.90;;;;;;4209093;28;20423;-62
2023/03/09 07:45:49;;;;;;;26.53;11.37;;;11.30;99.90;;;;;;4210550;28;20077;-61
2023/03/09 07:47:50;;;;;;;31.60;11.10;;;11.40;99.90;;;;;;4210289;28;20442;-63
2023/03/09 07:49:51;;;;;;;24.70;11.83;;;11.60;99.90;;;;;;4209583;28;20044;-68
2023/03/09 07:51:53;;;;;;;29.53;11.10;;;11.70;99.90;;;;;;4210277;28;20361;-68
2023/03/09 07:53:54;;;;;;;26.03;8.40;;;11.80;99.90;;;;;;4206993;28;20044;-63
2023/03/09 07:55:57;;;;;;;23.53;9.07;;;11.90;99.90;;;;;;4216282;28;20076;-63
2023/03/09 07:57:58;;;;;;;26.83;11.33;;;12.00;99.90;;;;;;4218306;28;20090;-67
2023/03/09 08:00:00;;;;;;;36.30;11.80;;;12.10;99.90;;;;;;4212737;28;20032;-66
2023/03/09 08:02:01;;;;;;;28.10;11.77;;;12.10;99.90;;;;;;4212513;28;20084;-66
2023/03/09 08:04:02;;;;;;;26.43;11.60;;;12.10;99.90;;;;;;4213050;28;20081;-68
2023/03/09 08:06:05;;;;;;;23.00;10.47;;;12.20;99.90;;;;;;4210665;28;20487;-67
2023/03/09 08:08:07;;;;;;;29.67;11.73;;;12.30;99.90;;;;;;4214236;28;20032;-65
2023/03/09 08:10:09;;;;;;;32.40;11.30;;;12.50;99.90;;;;;;4213020;28;20046;-67
2023/03/09 08:12:10;;;;;;;32.30;8.87;;;12.60;99.90;;;;;;4213804;28;20480;-63
2023/03/09 08:14:12;;;;;;;18.50;7.67;;;12.70;99.90;;;;;;4212826;28;20881;-67
2023/03/09 08:16:13;;;;;;;4.97;2.37;;;12.70;99.90;;;;;;4213779;28;20054;-68
2023/03/09 08:18:16;;;;;;;4.93;2.30;;;12.80;99.90;;;;;;4212975;28;20020;-64
2023/03/09 08:20:18;;;;;;;3.07;1.60;;;12.90;99.90;;;;;;4212988;28;20032;-68
2023/03/09 08:22:19;;;;;;;2.57;1.80;;;13.00;99.90;;;;;;4212554;28;20034;-66
2023/03/09 08:24:20;;;;;;;3.63;1.30;;;13.10;99.90;;;;;;4213001;28;20036;-67
2023/03/09 08:26:21;;;;;;;3.53;1.50;;;13.20;99.90;;;;;;4213265;28;20027;-67
2023/03/09 08:28:22;;;;;;;4.60;1.37;;;13.20;99.90;;;;;;4211545;28;20078;-64
2023/03/09 08:30:24;;;;;;;3.63;1.67;;;13.30;99.90;;;;;;4213744;28;20759;-63
2023/03/09 08:32:25;;;;;;;2.67;1.43;;;13.50;99.90;;;;;;4212280;28;20028;-65
2023/03/09 08:34:26;;;;;;;1.83;1.17;;;13.50;99.90;;;;;;4213882;28;20074;-67
2023/03/09 08:36:27;;;;;;;3.20;1.30;;;13.50;99.90;;;;;;4212665;28;20032;-67
2023/03/09 08:38:28;;;;;;;3.23;1.70;;;13.50;99.90;;;;;;4214159;28;20468;-65
2023/03/09 08:40:29;;;;;;;4.30;1.20;;;13.40;99.90;;;;;;4211727;28;20036;-66
2023/03/09 08:42:32;;;;;;;1.47;1.33;;;13.50;99.90;;;;;;4213111;28;20411;-65
2023/03/09 08:44:34;;;;;;;1.20;1.00;;;13.60;99.90;;;;;;4212119;28;20027;-64
2023/03/09 08:46:35;;;;;;;3.23;1.50;;;13.70;99.90;;;;;;4212824;28;20101;-66
2023/03/09 08:48:36;;;;;;;1.23;1.00;;;14.30;99.90;;;;;;4212169;28;20085;-64
2023/03/09 08:50:37;;;;;;;1.27;1.00;;;14.70;99.90;;;;;;4211456;28;20047;-66
2023/03/09 08:52:40;;;;;;;4.70;1.07;;;14.90;99.90;;;;;;4212638;28;20073;-66
2023/03/09 08:54:42;;;;;;;1.10;1.00;;;15.00;99.90;;;;;;4211700;28;20468;-67
2023/03/09 08:56:43;;;;;;;2.20;0.90;;;15.30;99.90;;;;;;4211615;28;20089;-66
2023/03/09 08:58:46;;;;;;;1.67;0.97;;;15.50;99.90;;;;;;4211771;28;20446;-65
2023/03/09 09:00:48;;;;;;;2.57;0.70;;;15.80;99.90;;;;;;4211802;28;20546;-65
2023/03/09 09:02:49;;;;;;;2.13;0.82;;;16.00;99.90;;;;;;4211678;28;20036;-66
2023/03/09 09:04:50;;;;;;;2.55;0.88;;;16.20;99.90;;;;;;4212094;28;20173;-65
2023/03/09 09:06:51;;;;;;;1.75;0.57;;;16.30;99.90;;;;;;4210487;28;20723;-66
2023/03/09 09:08:53;;;;;;;2.15;0.68;;;16.20;99.90;;;;;;4211774;28;20039;-65
2023/03/09 09:10:56;;;;;;;0.80;0.60;;;16.10;99.90;;;;;;4210280;28;20032;-67
2023/03/09 09:12:57;;;;;;;2.80;0.70;;;16.10;99.90;;;;;;4211759;28;20425;-65
2023/03/09 09:14:58;;;;;;;1.70;1.17;;;16.10;99.90;;;;;;4211114;28;20035;-66
2023/03/09 09:17:00;;;;;;;4.32;1.02;;;16.10;99.90;;;;;;4212455;28;20105;-66
2023/03/09 09:19:02;;;;;;;5.97;1.35;;;16.00;99.90;;;;;;4192610;28;20086;-66
2023/03/09 09:21:07;;;;;;;1.30;0.63;;;16.00;99.90;;;;;;4211501;28;20036;-65
2023/03/09 09:23:08;;;;;;;1.95;0.77;;;16.00;99.90;;;;;;4196254;28;20121;-66
2023/03/09 09:25:09;;;;;;;1.13;0.90;;;16.00;99.90;;;;;;4211751;28;20032;-66
2023/03/09 09:27:11;;;;;;;1.58;1.00;;;15.90;99.90;;;;;;4193039;28;20086;-63
2023/03/09 09:29:12;;;;;;;2.80;1.05;;;15.70;99.90;;;;;;4193200;28;20070;-66
2023/03/09 09:31:17;;;;;;;6.22;1.50;;;15.50;99.90;;;;;;4211690;28;20052;-67
2023/03/09 09:33:19;;;;;;;3.38;1.10;;;15.40;99.90;;;;;;4209067;28;20036;-67
2023/03/09 09:35:20;;;;;;;2.22;0.98;;;15.40;99.90;;;;;;4211981;28;20040;-68
2023/03/09 09:37:21;;;;;;;3.88;1.33;;;15.20;99.90;;;;;;4210665;28;20039;-67
2023/03/09 09:39:22;;;;;;;2.05;1.17;;;15.10;99.90;;;;;;4212270;28;20052;-66
2023/03/09 09:41:43;;;;;;;2.58;1.17;;;15.00;99.90;;;;;;4210791;28;20024;-64
2023/03/09 09:43:46;;;;;;;3.42;0.98;;;15.10;99.90;;;;;;4211419;28;20040;-67
2023/03/09 09:45:49;;;;;;;6.90;1.17;;;15.10;99.90;;;;;;4211181;28;20101;-67
2023/03/09 09:47:51;;;;;;;5.28;1.38;;;15.00;99.90;;;;;;4211955;28;20062;-65
2023/03/09 09:49:54;;;;;;;2.30;1.00;;;15.00;99.90;;;;;;4209759;28;20229;-67
2023/03/09 09:51:58;;;;;;;3.55;1.05;;;15.00;99.90;;;;;;4211774;28;20414;-66
2023/03/09 09:54:12;;;;;;;5.13;1.00;;;14.90;99.90;;;;;;4210009;28;20036;-67
2023/03/09 09:56:21;;;;;;;1.05;0.77;;;15.00;99.90;;;;;;4211878;28;20032;-67
2023/03/09 09:58:47;;;;;;;9.05;0.93;;;14.90;99.90;;;;;;4210361;28;20452;-67
2023/03/09 10:00:52;;;;;;;2.33;1.10;;;14.80;99.90;;;;;;4210569;28;20573;-66
2023/03/09 10:03:12;;;;;;;2.33;1.08;;;14.80;99.90;;;;;;4210000;28;20397;-64
2023/03/09 10:05:40;;;;;;;4.45;2.90;;;14.80;99.90;;;;;;4212130;28;20097;-64
2023/03/09 10:07:41;;;;;;;6.80;4.22;;;14.70;99.90;;;;;;4206821;28;20438;-65
2023/03/09 10:10:00;;;;;;;12.38;4.60;;;14.70;99.90;;;;;;4202849;28;20033;-61
2023/03/09 10:12:08;;;;;;;6.82;3.90;;;14.80;99.90;;;;;;4193672;28;20029;-63
2023/03/09 10:14:17;;;;;;;14.20;7.30;;;14.90;99.90;;;;;;4204190;28;20089;-63
2023/03/09 10:16:29;;;;;;;7.45;4.38;;;14.90;99.90;;;;;;4210642;28;20027;-62
2023/03/09 10:18:42;;;;;;;14.73;10.40;;;15.00;99.90;;;;;;4211317;28;20036;-65
2023/03/09 10:20:49;;;;;;;10.05;7.22;;;15.10;99.90;;;;;;4210132;28;20422;-60
2023/03/09 10:22:54;;;;;;;8.30;3.47;;;15.10;99.90;;;;;;4210651;28;20094;-62
2023/03/09 10:24:56;;;;;;;7.65;3.72;;;15.00;99.90;;;;;;4209798;28;20058;-61
2023/03/09 10:27:20;;;;;;;5.63;4.18;;;15.00;99.90;;;;;;4207466;28;20446;-61
2023/03/09 10:29:29;;;;;;;7.65;4.60;;;14.90;99.70;;;;;;4196141;28;20053;-63
2023/03/09 10:31:55;;;;;;;5.15;3.25;;;14.90;99.90;;;;;;4210901;28;20086;-66
2023/03/09 10:34:10;;;;;;;10.45;5.03;;;14.80;99.90;;;;;;4208759;28;20054;-63
2023/03/09 10:36:31;;;;;;;24.55;9.75;;;14.80;99.90;;;;;;4210727;28;20024;-63
2023/03/09 10:38:34;;;;;;;19.58;8.13;;;14.80;99.90;;;;;;4208958;28;20028;-66